createdAt,value
2022-08-21T00:07:33.949Z,101181.25
2022-08-21T00:15:10.424Z,101175.03
2022-08-21T00:22:47.988Z,101174.19
2022-08-21T00:30:23.999Z,101167.09
2022-08-21T00:37:59.993Z,101186.19
2022-08-21T00:45:34.701Z,101189.03
2022-08-21T00:53:11.922Z,101180.16
2022-08-21T01:00:49.896Z,101177.53
2022-08-21T01:08:25.840Z,101175.81
2022-08-21T01:16:04.037Z,101181.28
2022-08-21T01:23:41.740Z,101184.03
2022-08-21T01:31:17.181Z,101173.25
2022-08-21T01:38:59.500Z,101185.88
2022-08-21T01:46:33.742Z,101187.72
2022-08-21T01:54:09.287Z,101194.13
2022-08-21T02:01:43.457Z,101192.41
2022-08-21T02:09:18.685Z,101189.72
2022-08-21T02:16:52.792Z,101191.50
2022-08-21T02:24:54.850Z,101184.41
2022-08-21T02:32:29.224Z,101186.34
2022-08-21T02:40:05.747Z,101178.34
2022-08-21T02:47:39.672Z,101182.91
2022-08-21T02:55:14.789Z,101190.13
2022-08-21T03:02:49.292Z,101188.38
2022-08-21T03:10:24.611Z,101183.00
2022-08-21T03:17:58.434Z,101181.25
2022-08-21T03:25:40.454Z,101175.91
2022-08-21T03:33:15.778Z,101176.00
2022-08-21T03:40:51.179Z,101184.16
2022-08-21T03:48:25.565Z,101195.91
2022-08-21T03:56:00.869Z,101187.84
2022-08-21T04:03:36.992Z,101193.25
2022-08-21T04:11:12.458Z,101192.38
2022-08-21T04:18:46.307Z,101206.81
2022-08-21T04:26:21.661Z,101210.44
2022-08-21T04:33:55.492Z,101202.38
2022-08-21T04:41:30.600Z,101205.13
2022-08-21T04:49:04.469Z,101219.50
2022-08-21T04:56:46.649Z,101221.31
2022-08-21T05:04:25.295Z,101221.34
2022-08-21T05:12:00.503Z,101225.00
2022-08-21T05:19:34.254Z,101224.13
2022-08-21T05:27:09.386Z,101225.91
2022-08-21T05:34:43.243Z,101225.03
2022-08-21T05:42:18.460Z,101234.91
2022-08-21T05:49:52.264Z,101241.19
2022-08-21T05:57:27.486Z,101243.88
2022-08-21T06:05:01.346Z,101249.28
2022-08-21T06:12:36.541Z,101247.50
2022-08-21T06:20:14.026Z,101247.50
2022-08-21T06:27:49.165Z,101243.91
2022-08-21T06:35:23.074Z,101255.56
2022-08-21T06:43:00.662Z,101260.94
2022-08-21T06:50:36.111Z,101260.06
2022-08-21T06:58:11.960Z,101255.53
2022-08-21T07:05:45.802Z,101248.28
2022-08-21T07:13:21.073Z,101250.94
2022-08-21T07:20:55.037Z,101246.34
2022-08-21T07:28:30.505Z,101229.09
2022-08-21T07:36:05.133Z,101234.38
2022-08-21T07:43:46.179Z,101236.94
2022-08-21T07:51:23.107Z,101248.50
2022-08-21T07:58:58.848Z,101244.69
2022-08-21T08:06:33.027Z,101230.03
2022-08-21T08:14:08.193Z,101234.31
2022-08-21T08:21:42.125Z,101219.63
2022-08-21T08:29:17.319Z,101231.25
2022-08-21T08:36:51.520Z,101229.25
2022-08-21T08:44:26.998Z,101240.59
2022-08-21T08:52:08.949Z,101241.22
2022-08-21T08:59:47.970Z,101223.72
2022-08-21T09:07:32.912Z,101213.59
2022-08-21T09:15:18.515Z,101220.72
2022-08-21T09:23:09.523Z,101231.16
2022-08-21T09:30:45.798Z,101224.53
2022-08-21T09:38:29.402Z,101226.03
2022-08-21T09:46:11.091Z,101225.00
2022-08-21T09:53:48.717Z,101220.38
2022-08-21T10:01:26.587Z,101227.88
2022-08-21T10:09:07.903Z,101209.22
2022-08-21T10:16:54.744Z,101211.50
2022-08-21T10:24:35.930Z,101215.69
2022-08-21T10:32:26.339Z,101217.56
2022-08-21T10:40:14.670Z,101211.50
2022-08-21T10:47:57.854Z,101207.47
2022-08-21T10:55:35.713Z,101200.25
2022-08-21T11:03:15.737Z,101212.06
2022-08-21T11:10:59.398Z,101215.28
2022-08-21T11:18:40.792Z,101214.25
2022-08-21T11:26:20.546Z,101202.47
2022-08-21T11:34:08.354Z,101207.75
2022-08-21T11:41:49.552Z,101193.97
2022-08-21T11:49:38.100Z,101202.63
2022-08-21T12:05:13.310Z,101196.31
2022-08-21T12:12:47.408Z,101183.44
2022-08-21T12:20:39.881Z,101176.03
2022-08-21T12:28:25.563Z,101171.91
2022-08-21T12:36:09.592Z,101172.25
2022-08-21T12:43:47.737Z,101159.97
2022-08-21T12:51:26.663Z,101160.84
2022-08-21T12:59:04.844Z,101159.75
2022-08-21T13:06:43.589Z,101159.03
2022-08-21T13:14:25.542Z,101160.53
2022-08-21T13:22:02.705Z,101154.13
2022-08-21T13:30:06.974Z,101152.75
2022-08-21T13:37:44.307Z,101147.50
2022-08-21T13:45:26.116Z,101152.94
2022-08-21T13:53:05.968Z,101149.88
2022-08-21T14:00:48.469Z,101150.56
2022-08-21T14:08:32.106Z,101147.19
2022-08-21T14:16:14.370Z,101148.25
2022-08-21T14:23:49.538Z,101149.16
2022-08-21T14:31:30.401Z,101142.09
2022-08-21T14:39:06.055Z,101154.03
2022-08-21T14:46:54.143Z,101154.31
2022-08-21T14:54:33.305Z,101159.00
2022-08-21T15:02:08.310Z,101145.50
2022-08-21T15:09:43.458Z,101146.53
2022-08-21T15:17:17.655Z,101150.13
2022-08-21T15:24:52.692Z,101146.59
2022-08-21T15:32:30.300Z,101137.69
2022-08-21T15:40:07.599Z,101138.63
2022-08-21T15:47:46.468Z,101141.41
2022-08-21T15:55:21.795Z,101145.94
2022-08-21T16:02:59.224Z,101130.66
2022-08-21T16:10:36.641Z,101137.03
2022-08-21T16:18:11.274Z,101132.59
2022-08-21T16:25:47.184Z,101128.22
2022-08-21T16:33:24.979Z,101133.09
2022-08-21T16:41:01.055Z,101128.53
2022-08-21T16:48:34.951Z,101125.28
2022-08-21T16:56:14.578Z,101128.81
2022-08-21T17:03:51.464Z,101124.59
2022-08-21T17:11:38.078Z,101122.16
2022-08-21T17:19:14.040Z,101121.19
2022-08-21T17:26:50.235Z,101121.38
2022-08-21T17:34:24.759Z,101124.63
2022-08-21T17:42:10.430Z,101128.38
2022-08-21T17:49:44.264Z,101132.22
2022-08-21T17:57:23.728Z,101137.03
2022-08-21T18:04:58.008Z,101133.84
2022-08-21T18:12:33.764Z,101140.66
2022-08-21T18:20:09.251Z,101149.28
2022-08-21T18:27:46.400Z,101144.34
2022-08-21T18:35:20.659Z,101157.69
2022-08-21T18:42:56.104Z,101156.31
2022-08-21T18:50:30.438Z,101157.56
2022-08-21T18:58:05.804Z,101157.22
2022-08-21T19:05:43.328Z,101162.91
2022-08-21T19:13:22.969Z,101168.66
2022-08-21T19:20:57.675Z,101157.22
2022-08-21T19:28:38.811Z,101172.94
2022-08-21T19:36:12.939Z,101175.00
2022-08-21T19:43:51.670Z,101171.59
2022-08-21T19:51:25.791Z,101185.41
2022-08-21T19:59:03.034Z,101179.31
2022-08-21T20:06:40.353Z,101173.25
2022-08-21T20:14:19.181Z,101179.75
2022-08-21T20:21:52.977Z,101181.69
2022-08-21T20:29:31.458Z,101188.19
2022-08-21T20:37:11.065Z,101191.00
2022-08-21T20:44:47.506Z,101189.38
2022-08-21T20:52:23.667Z,101189.44
2022-08-21T21:00:02.645Z,101195.81
2022-08-21T21:07:39.662Z,101198.66
2022-08-21T21:15:26.022Z,101199.63
2022-08-21T21:23:12.168Z,101203.34
2022-08-21T21:30:51.947Z,101206.13
2022-08-21T21:38:35.321Z,101199.00
2022-08-21T21:46:25.610Z,101207.16
2022-08-21T21:54:11.406Z,101210.88
2022-08-21T22:01:50.342Z,101220.84
2022-08-21T22:09:42.297Z,101225.44
2022-08-21T22:17:33.903Z,101222.81
2022-08-21T22:25:17.324Z,101231.84
2022-08-21T22:32:52.597Z,101224.69
2022-08-21T22:40:28.971Z,101225.66
2022-08-21T22:56:07.553Z,101228.44
2022-08-21T23:03:47.585Z,101237.47
2022-08-21T23:11:25.195Z,101239.28
2022-08-21T23:19:10.595Z,101230.34
2022-08-21T23:26:57.263Z,101232.16
2022-08-21T23:34:43.782Z,101226.78
2022-08-21T23:42:32.719Z,101219.63
2022-08-21T23:58:18.571Z,101232.28
